Collierville, TN

5:46 AM CST on February 10, 2016 (GMT -0600)
Shady Creek | | Change Station
CLOSE
Current Station
Personal Weather Station
Location: Germantown, TN
Elevation: 312 ft
Nearby Weather Stations

Elev 312 ft 35.07 °N, 89.77 °W | Updated 13 minutes ago

Clear
Clear
--
Feels Like --
N
-
Wind Variable Wind from North

Today
High -- | Low -- °F
--% Chance of Precip.
Yesterday
High -- | Low -- °F
Precip. -- in
Pressure 30.24 in
Visibility 10.0 miles
Clouds Clear
Dew Point Not available.
Humidity Not available.
Rainfall 0.00 in
Snow Depth Not available.
6:50 AM 5:36 PM
Waxing Crescent, 5% visible
METAR KOLV 101115Z AUTO 31007KT 10SM CLR M05/M12 A3024 RMK A01 P000
Pressure 30.24 in
Visibility 10.0 miles
Clouds Clear
Dew Point Not available.
Humidity Not available.
Rainfall 0.00 in
Snow Depth Not available.
6:50 AM 5:36 PM
Waxing Crescent, 5% visible
METAR KOLV 101115Z AUTO 31007KT 10SM CLR M05/M12 A3024 RMK A01 P000

10-Day Weather Forecast

Almanac

Astronomy

Feb. 10, 2016 Rise Set
Actual Time
Civil Twilight
Nautical Twilight
Astronomical Twilight
Moon
Length of Visible Light
Length of Day
Tomorrow will be .
, % of the Moon is Illuminated

Today's Extremes

State Highs State Lows

Community

WunderPhotos

Upload Photos

1,891,830 photos uploaded!

WunderBlog® & News

Nearby

Air Quality

  Air Quality AQ Index Pollutant
Not available.

Snow Depth

Station Depth Elevation

Earthquake Activity

City Distance Mag. Time & Date
Minimum magnitude displayed is 2.5.

Coastal Water Temperatures

Place Temperature

Stations

Nearby Weather Stations

Station Location Temp. Windchill Dew Point Humidity Wind Precip. Elev Updated Type
                   

Watches & Warnings

There are currently no watches in effect.